createdAt,value
2022-12-23T00:01:38.521Z,8.00
2022-12-23T00:04:06.123Z,7.90
2022-12-23T00:06:33.555Z,8.00
2022-12-23T00:09:01.042Z,7.90
2022-12-23T00:11:29.985Z,7.90
2022-12-23T00:14:21.081Z,7.80
2022-12-23T00:16:51.557Z,7.80
2022-12-23T00:19:19.747Z,7.90
2022-12-23T00:21:48.738Z,7.90
2022-12-23T00:24:16.516Z,7.90
2022-12-23T00:26:43.929Z,7.80
2022-12-23T00:29:11.311Z,7.80
2022-12-23T00:31:38.595Z,7.80
2022-12-23T00:34:05.984Z,7.70
2022-12-23T00:36:33.437Z,7.80
2022-12-23T00:39:19.788Z,7.70
2022-12-23T00:42:05.505Z,7.80
2022-12-23T00:44:32.904Z,7.80
2022-12-23T00:47:00.160Z,7.80
2022-12-23T00:49:42.679Z,7.80
2022-12-23T00:52:15.919Z,7.70
2022-12-23T00:54:43.379Z,7.70
2022-12-23T00:57:10.920Z,7.80
2022-12-23T00:59:38.340Z,7.80
2022-12-23T01:02:24.768Z,8.00
2022-12-23T01:05:10.879Z,8.10
2022-12-23T01:07:38.373Z,8.10
2022-12-23T01:10:05.988Z,8.20
2022-12-23T01:12:33.411Z,8.10
2022-12-23T01:15:00.674Z,8.10
2022-12-23T01:17:28.158Z,8.20
2022-12-23T01:19:55.578Z,8.10
2022-12-23T01:22:23.498Z,8.00
2022-12-23T01:24:51.500Z,8.00
2022-12-23T01:27:18.913Z,8.20
2022-12-23T01:29:46.761Z,8.30
2022-12-23T01:32:14.910Z,8.00
2022-12-23T01:34:42.334Z,7.80
2022-12-23T01:37:09.962Z,7.90
2022-12-23T01:39:37.250Z,8.00
2022-12-23T01:42:23.395Z,8.10
2022-12-23T01:45:00.818Z,7.60
2022-12-23T01:47:40.491Z,7.20
2022-12-23T01:50:36.904Z,7.20
2022-12-23T01:53:20.244Z,7.40
2022-12-23T01:56:07.458Z,7.50
2022-12-23T01:58:46.325Z,7.60
2022-12-23T02:01:33.512Z,7.60
2022-12-23T02:04:06.422Z,7.50
2022-12-23T02:06:55.633Z,7.50
2022-12-23T02:09:27.664Z,7.60
2022-12-23T02:12:16.419Z,7.20
2022-12-23T02:15:26.462Z,7.00
2022-12-23T02:18:13.775Z,7.20
2022-12-23T02:21:01.921Z,7.10
2022-12-23T02:23:56.532Z,7.00
2022-12-23T02:26:33.498Z,7.00
2022-12-23T02:29:28.945Z,6.90
2022-12-23T02:32:25.454Z,7.00
2022-12-23T02:35:10.742Z,7.20
2022-12-23T02:37:44.785Z,6.90
2022-12-23T02:40:20.303Z,6.80
2022-12-23T02:42:54.306Z,6.70
2022-12-23T02:46:00.899Z,6.80
2022-12-23T02:48:35.756Z,7.00
2022-12-23T02:51:06.622Z,6.70
2022-12-23T02:53:39.464Z,6.60
2022-12-23T02:56:09.072Z,6.70
2022-12-23T02:58:45.362Z,6.80
2022-12-23T03:01:15.455Z,6.30
2022-12-23T03:03:44.502Z,6.30
2022-12-23T03:06:23.421Z,6.40
2022-12-23T03:08:55.341Z,6.70
2022-12-23T03:11:44.202Z,6.80
2022-12-23T03:14:38.922Z,6.70
2022-12-23T03:17:47.649Z,6.60
2022-12-23T03:20:36.799Z,6.20
2022-12-23T03:23:12.791Z,6.10
2022-12-23T03:25:50.347Z,6.10
2022-12-23T03:28:40.492Z,6.20
2022-12-23T03:31:14.082Z,6.30
2022-12-23T03:33:47.120Z,6.30
2022-12-23T03:36:23.046Z,6.30
2022-12-23T03:38:53.718Z,6.30
2022-12-23T03:41:28.024Z,6.20
2022-12-23T03:44:06.619Z,6.10
2022-12-23T03:46:49.247Z,6.20
2022-12-23T03:49:24.627Z,6.10
2022-12-23T03:52:20.513Z,6.10
2022-12-23T03:54:58.115Z,5.80
2022-12-23T03:57:38.494Z,5.80
2022-12-23T04:00:06.859Z,6.00
2022-12-23T04:03:05.876Z,6.20
2022-12-23T04:05:36.876Z,6.10
2022-12-23T04:08:30.872Z,6.00
2022-12-23T04:10:59.650Z,5.80
2022-12-23T04:13:28.304Z,5.60
2022-12-23T04:15:58.556Z,5.60
2022-12-23T04:18:26.275Z,5.70
2022-12-23T04:20:53.552Z,5.70
2022-12-23T04:23:20.990Z,5.70
2022-12-23T04:25:48.330Z,5.70
2022-12-23T04:28:16.385Z,5.80
2022-12-23T04:30:45.771Z,5.70
2022-12-23T04:33:14.528Z,5.70
2022-12-23T04:35:42.538Z,5.70
2022-12-23T04:38:10.067Z,5.80
2022-12-23T04:40:37.362Z,5.90
2022-12-23T04:43:05.187Z,5.90
2022-12-23T04:45:34.294Z,5.70
2022-12-23T04:48:02.331Z,5.20
2022-12-23T04:50:29.771Z,4.90
2022-12-23T04:52:57.141Z,5.00
2022-12-23T04:55:24.572Z,5.30
2022-12-23T04:57:51.961Z,5.40
2022-12-23T05:00:23.457Z,5.30
2022-12-23T05:02:52.617Z,5.30
2022-12-23T05:05:20.138Z,5.40
2022-12-23T05:07:51.047Z,4.80
2022-12-23T05:10:18.591Z,4.50
2022-12-23T05:12:46.649Z,4.70
2022-12-23T05:15:14.522Z,4.90
2022-12-23T05:17:41.940Z,5.00
2022-12-23T05:20:10.049Z,5.10
2022-12-23T05:22:37.395Z,5.10
2022-12-23T05:25:05.371Z,5.00
2022-12-23T05:27:32.801Z,5.10
2022-12-23T05:30:00.122Z,5.10
2022-12-23T05:32:27.528Z,5.00
2022-12-23T05:34:54.912Z,4.70
2022-12-23T05:37:22.182Z,4.70
2022-12-23T05:39:49.547Z,4.90
2022-12-23T05:42:19.545Z,4.90
2022-12-23T05:44:47.317Z,4.50
2022-12-23T05:47:14.952Z,4.70
2022-12-23T05:49:42.786Z,4.50
2022-12-23T05:52:10.492Z,4.50
2022-12-23T05:54:37.791Z,4.70
2022-12-23T05:57:05.371Z,4.60
2022-12-23T06:00:11.081Z,4.50
2022-12-23T06:03:01.328Z,4.50
2022-12-23T06:06:01.822Z,4.60
2022-12-23T06:09:21.614Z,4.40
2022-12-23T06:12:32.878Z,4.50
2022-12-23T06:18:36.101Z,5.00
2022-12-23T06:21:53.116Z,5.10
2022-12-23T06:31:32.619Z,5.60
2022-12-23T06:34:47.364Z,5.30
2022-12-23T06:37:25.208Z,5.20
2022-12-23T06:43:42.555Z,5.20
2022-12-23T06:46:25.111Z,5.20
2022-12-23T06:53:14.969Z,5.60
2022-12-23T06:55:42.897Z,5.80
2022-12-23T06:59:02.437Z,5.80
2022-12-23T07:05:16.419Z,5.70
2022-12-23T07:07:51.993Z,5.70
2022-12-23T07:10:19.427Z,5.70
2022-12-23T07:12:50.717Z,5.90
2022-12-23T07:15:19.637Z,6.00
2022-12-23T07:17:48.353Z,6.00
2022-12-23T07:20:17.039Z,6.00
2022-12-23T07:22:44.923Z,6.10
2022-12-23T07:25:13.521Z,6.10
2022-12-23T07:27:40.882Z,6.20
2022-12-23T07:34:51.848Z,6.50
2022-12-23T07:38:02.320Z,6.40
2022-12-23T07:40:56.882Z,6.40
2022-12-23T07:43:24.943Z,6.70
2022-12-23T07:47:05.836Z,6.90
2022-12-23T07:49:38.458Z,7.10
2022-12-23T07:52:05.987Z,7.20
2022-12-23T07:54:33.630Z,7.30
2022-12-23T07:57:00.955Z,7.20
2022-12-23T07:59:29.177Z,7.10
2022-12-23T08:01:56.662Z,7.00
2022-12-23T08:04:25.312Z,7.20
2022-12-23T08:06:52.720Z,7.20
2022-12-23T08:09:20.687Z,7.20
2022-12-23T08:11:48.063Z,7.20
2022-12-23T08:14:16.631Z,7.20
2022-12-23T08:16:44.751Z,7.10
2022-12-23T08:19:12.271Z,7.00
2022-12-23T08:21:39.766Z,6.90
2022-12-23T08:24:07.888Z,6.50
2022-12-23T08:26:35.303Z,6.80
2022-12-23T08:29:03.757Z,7.00
2022-12-23T08:31:34.715Z,7.20
2022-12-23T08:34:02.174Z,7.40
2022-12-23T08:36:35.547Z,7.50
2022-12-23T08:39:08.022Z,7.60
2022-12-23T08:41:41.169Z,7.40
2022-12-23T08:44:09.380Z,7.20
2022-12-23T08:46:37.554Z,7.40
2022-12-23T08:49:06.208Z,7.40
2022-12-23T08:51:35.790Z,7.50
2022-12-23T08:54:05.005Z,7.40
2022-12-23T08:56:36.090Z,7.40
2022-12-23T08:59:04.268Z,7.60
2022-12-23T09:01:33.841Z,7.60
2022-12-23T09:04:07.070Z,8.00
2022-12-23T09:06:37.847Z,8.40
2022-12-23T09:09:05.772Z,8.90
2022-12-23T09:11:34.792Z,9.30
2022-12-23T09:14:02.822Z,9.40
2022-12-23T09:16:30.517Z,9.40
2022-12-23T09:18:59.332Z,9.20
2022-12-23T09:21:26.799Z,9.10
2022-12-23T09:23:54.353Z,9.10
2022-12-23T09:26:27.205Z,9.30
2022-12-23T09:28:55.283Z,9.40
2022-12-23T09:31:23.492Z,9.60
2022-12-23T09:33:53.076Z,9.70
2022-12-23T09:36:21.995Z,9.70
2022-12-23T09:38:55.703Z,9.50
2022-12-23T09:41:30.128Z,9.20
2022-12-23T09:44:19.056Z,9.20
2022-12-23T09:46:52.677Z,9.20
2022-12-23T09:49:22.761Z,9.00
2022-12-23T09:51:54.317Z,8.80
2022-12-23T09:54:23.196Z,8.80
2022-12-23T09:57:02.147Z,8.60
2022-12-23T09:59:53.579Z,8.50
2022-12-23T10:02:51.431Z,8.40
2022-12-23T10:05:47.447Z,8.20
2022-12-23T10:08:27.061Z,8.30
2022-12-23T10:11:21.143Z,8.60
2022-12-23T10:13:56.613Z,8.80
2022-12-23T10:16:31.184Z,9.00
2022-12-23T10:19:23.543Z,9.20
2022-12-23T10:22:10.443Z,9.40
2022-12-23T10:24:43.442Z,9.20
2022-12-23T10:27:40.309Z,9.50
2022-12-23T10:30:34.114Z,9.80
2022-12-23T10:33:05.020Z,10.00
2022-12-23T10:36:05.526Z,9.60
2022-12-23T10:38:56.870Z,9.70
2022-12-23T10:41:38.003Z,10.20
2022-12-23T10:44:32.467Z,12.50
2022-12-23T10:47:23.354Z,15.10
2022-12-23T10:50:09.679Z,17.80
2022-12-23T10:52:41.567Z,19.00
2022-12-23T10:55:31.357Z,19.40
2022-12-23T10:58:18.546Z,20.00
2022-12-23T11:00:54.434Z,21.10
2022-12-23T11:03:42.894Z,22.30
2022-12-23T11:06:13.176Z,23.30
2022-12-23T11:08:42.480Z,23.60
2022-12-23T11:11:09.848Z,23.70
2022-12-23T11:13:41.573Z,24.20
2022-12-23T11:16:28.929Z,24.50
2022-12-23T11:19:05.700Z,24.70
2022-12-23T11:21:34.428Z,24.40
2022-12-23T11:24:18.115Z,23.60
2022-12-23T11:26:59.745Z,22.90
2022-12-23T11:29:34.934Z,21.90
2022-12-23T11:32:14.455Z,21.60
2022-12-23T11:34:48.086Z,21.30
2022-12-23T11:37:41.527Z,20.70
2022-12-23T11:40:26.620Z,19.50
2022-12-23T11:43:03.850Z,16.80
2022-12-23T11:45:37.919Z,16.40
2022-12-23T11:48:27.150Z,16.60
2022-12-23T11:51:02.981Z,17.20
2022-12-23T11:53:30.417Z,17.60
2022-12-23T11:56:05.282Z,17.80
2022-12-23T11:58:52.624Z,17.50
2022-12-23T12:01:24.243Z,17.20
2022-12-23T12:04:08.171Z,17.20
2022-12-23T12:06:36.886Z,16.90
2022-12-23T12:09:06.942Z,16.90
2022-12-23T12:11:44.643Z,17.00
2022-12-23T12:14:28.490Z,17.00
2022-12-23T12:17:29.596Z,17.30
2022-12-23T12:20:06.761Z,17.50
2022-12-23T12:22:56.349Z,17.50
2022-12-23T12:25:47.906Z,17.40
2022-12-23T12:28:24.281Z,17.20
2022-12-23T12:31:15.079Z,17.40
2022-12-23T12:33:53.523Z,17.80
2022-12-23T12:36:35.947Z,18.00
2022-12-23T12:39:07.135Z,17.30
2022-12-23T12:41:53.213Z,16.70
2022-12-23T12:44:44.545Z,16.50
2022-12-23T12:48:13.134Z,16.50
2022-12-23T12:51:08.367Z,16.20
2022-12-23T12:53:37.902Z,16.30
2022-12-23T12:56:19.461Z,16.50
2022-12-23T12:58:47.149Z,16.90
2022-12-23T13:01:24.896Z,17.40
2022-12-23T13:04:04.209Z,17.80
2022-12-23T13:06:48.217Z,18.00
2022-12-23T13:09:30.818Z,18.10
2022-12-23T13:12:33.560Z,18.30
2022-12-23T13:15:24.718Z,18.70
2022-12-23T13:18:19.523Z,18.90
2022-12-23T13:20:55.200Z,19.40
2022-12-23T13:24:08.611Z,19.90
2022-12-23T13:26:45.351Z,20.10
2022-12-23T13:29:38.573Z,20.80
2022-12-23T13:32:42.673Z,21.10
2022-12-23T13:35:25.111Z,21.50
2022-12-23T13:38:12.499Z,22.00
2022-12-23T13:41:02.590Z,22.60
2022-12-23T13:44:00.665Z,23.10
2022-12-23T13:47:02.846Z,23.30
2022-12-23T13:49:31.648Z,23.80
2022-12-23T13:52:17.401Z,24.20
2022-12-23T13:55:08.981Z,24.40
2022-12-23T13:57:48.206Z,24.60
2022-12-23T14:00:21.585Z,25.00
2022-12-23T14:03:00.407Z,25.00
2022-12-23T14:05:32.656Z,25.20
2022-12-23T14:08:06.820Z,25.10
2022-12-23T14:10:35.789Z,25.20
2022-12-23T14:13:09.213Z,24.80
2022-12-23T14:15:56.516Z,25.00
2022-12-23T14:18:28.317Z,25.10
2022-12-23T14:21:05.041Z,24.70
2022-12-23T14:24:04.730Z,24.80
2022-12-23T14:27:10.354Z,24.70
2022-12-23T14:30:08.606Z,24.40
2022-12-23T14:33:15.103Z,24.10
2022-12-23T14:35:42.999Z,22.70
2022-12-23T14:38:24.772Z,21.70
2022-12-23T14:41:12.647Z,20.50
2022-12-23T14:43:46.959Z,19.40
2022-12-23T14:46:36.248Z,18.00
2022-12-23T14:49:37.072Z,17.30
2022-12-23T14:51:52.281Z,14.90
2022-12-23T14:54:38.645Z,14.40
2022-12-23T14:57:17.918Z,14.00
2022-12-23T14:59:57.017Z,13.20
2022-12-23T15:02:35.481Z,13.40
2022-12-23T15:05:04.470Z,13.20
2022-12-23T15:07:35.659Z,13.40
2022-12-23T15:10:09.208Z,13.40
2022-12-23T15:12:41.362Z,12.90
2022-12-23T15:15:16.971Z,12.30
2022-12-23T15:17:44.406Z,12.30
2022-12-23T15:20:23.610Z,12.30
2022-12-23T15:22:53.216Z,12.50
2022-12-23T15:25:33.911Z,12.70
2022-12-23T15:28:02.716Z,12.90
2022-12-23T15:30:48.431Z,12.90
2022-12-23T15:36:11.315Z,12.50
2022-12-23T15:38:39.900Z,12.20
2022-12-23T15:41:16.738Z,12.00
2022-12-23T15:43:44.906Z,12.10
2022-12-23T15:46:29.315Z,11.40
2022-12-23T15:48:58.494Z,10.50
2022-12-23T15:52:07.264Z,10.50
2022-12-23T15:54:34.253Z,10.60
2022-12-23T15:57:03.523Z,10.50
2022-12-23T15:59:40.071Z,10.60
2022-12-23T16:02:59.785Z,10.60
2022-12-23T16:05:31.629Z,10.80
2022-12-23T16:08:15.363Z,11.00
2022-12-23T16:11:15.997Z,11.10
2022-12-23T16:13:58.941Z,11.00
2022-12-23T16:16:43.406Z,10.40
2022-12-23T16:19:39.620Z,10.10
2022-12-23T16:22:29.482Z,10.00
2022-12-23T16:24:57.032Z,9.90
2022-12-23T16:27:41.785Z,9.90
2022-12-23T16:30:28.065Z,10.00
2022-12-23T16:33:02.269Z,10.00
2022-12-23T16:35:29.660Z,9.90
2022-12-23T16:38:17.515Z,10.00
2022-12-23T16:40:53.615Z,10.00
2022-12-23T16:43:23.727Z,10.00
2022-12-23T16:45:55.209Z,9.80
2022-12-23T16:48:35.503Z,9.70
2022-12-23T16:51:17.086Z,10.00
2022-12-23T16:53:45.565Z,10.10
2022-12-23T16:56:14.537Z,10.20
2022-12-23T16:58:44.099Z,10.30
2022-12-23T17:01:28.665Z,10.30
2022-12-23T17:03:56.611Z,10.30
2022-12-23T17:06:25.226Z,10.10
2022-12-23T17:08:53.554Z,10.00
2022-12-23T17:11:31.648Z,10.00
2022-12-23T17:14:05.658Z,10.00
2022-12-23T17:16:35.696Z,9.50
2022-12-23T17:19:03.187Z,9.30
2022-12-23T17:21:35.210Z,9.40
2022-12-23T17:24:20.634Z,9.30
2022-12-23T17:26:49.117Z,9.20
2022-12-23T17:29:16.813Z,9.00
2022-12-23T17:31:45.732Z,8.70
2022-12-23T17:34:25.106Z,8.90
2022-12-23T17:36:53.120Z,8.90
2022-12-23T17:39:22.950Z,8.80
2022-12-23T17:41:52.056Z,8.70
2022-12-23T17:44:20.109Z,9.00
2022-12-23T17:46:48.428Z,9.20
2022-12-23T17:49:15.791Z,9.40
2022-12-23T17:51:44.003Z,9.50
2022-12-23T17:54:23.526Z,9.60
2022-12-23T17:56:51.850Z,9.10
2022-12-23T17:59:22.593Z,9.10
2022-12-23T18:01:51.398Z,9.20
2022-12-23T18:04:18.820Z,9.30
2022-12-23T18:06:46.325Z,9.20
2022-12-23T18:09:13.646Z,8.90
2022-12-23T18:11:44.286Z,9.00
2022-12-23T18:14:20.213Z,9.20
2022-12-23T18:16:48.047Z,9.00
2022-12-23T18:19:22.007Z,9.00
2022-12-23T18:21:53.139Z,9.10
2022-12-23T18:24:22.536Z,8.90
2022-12-23T18:26:50.112Z,8.60
2022-12-23T18:29:17.536Z,8.80
2022-12-23T18:31:52.157Z,8.90
2022-12-23T18:34:21.852Z,9.00
2022-12-23T18:36:52.099Z,9.20
2022-12-23T18:39:20.683Z,9.20
2022-12-23T18:41:49.223Z,9.20
2022-12-23T18:44:21.729Z,9.20
2022-12-23T18:46:50.717Z,8.90
2022-12-23T18:49:18.941Z,8.00
2022-12-23T18:51:48.056Z,8.10
2022-12-23T18:54:17.379Z,8.30
2022-12-23T18:56:45.635Z,8.50
2022-12-23T18:59:24.281Z,8.60
2022-12-23T19:01:56.857Z,8.80
2022-12-23T19:04:24.818Z,8.40
2022-12-23T19:06:53.734Z,8.20
2022-12-23T19:09:23.796Z,8.40
2022-12-23T19:11:53.145Z,8.60
2022-12-23T19:14:22.624Z,8.80
2022-12-23T19:16:52.434Z,8.60
2022-12-23T19:19:22.246Z,8.40
2022-12-23T19:21:50.246Z,8.40
2022-12-23T19:24:17.927Z,8.40
2022-12-23T19:26:45.385Z,8.50
2022-12-23T19:29:13.087Z,8.50
2022-12-23T19:31:40.705Z,8.60
2022-12-23T19:34:14.357Z,8.80
2022-12-23T19:36:43.341Z,8.90
2022-12-23T19:39:17.330Z,9.00
2022-12-23T19:41:46.293Z,9.00
2022-12-23T19:44:14.196Z,9.00
2022-12-23T19:46:43.717Z,9.10
2022-12-23T19:49:19.256Z,8.80
2022-12-23T19:51:47.812Z,8.30
2022-12-23T19:54:18.637Z,8.20
2022-12-23T19:56:46.476Z,8.30
2022-12-23T19:59:14.707Z,8.40
2022-12-23T20:01:42.237Z,8.50
2022-12-23T20:04:13.965Z,8.60
2022-12-23T20:06:42.801Z,8.60
2022-12-23T20:09:12.653Z,8.60
2022-12-23T20:11:42.946Z,8.70
2022-12-23T20:14:12.428Z,8.80
2022-12-23T20:16:41.343Z,8.90
2022-12-23T20:19:09.192Z,8.90
2022-12-23T20:21:37.683Z,8.70
2022-12-23T20:24:07.375Z,8.50
2022-12-23T20:26:35.253Z,8.50
2022-12-23T20:29:04.223Z,8.60
2022-12-23T20:31:33.519Z,8.70
2022-12-23T20:34:02.796Z,8.80
2022-12-23T20:36:34.555Z,8.90
2022-12-23T20:39:03.608Z,9.00
2022-12-23T20:41:33.288Z,9.00
2022-12-23T20:46:50.359Z,8.60
2022-12-23T20:49:18.453Z,8.60
2022-12-23T20:51:47.132Z,8.60
2022-12-23T20:54:14.457Z,8.70
2022-12-23T20:56:41.881Z,8.80
2022-12-23T20:59:09.454Z,8.80
2022-12-23T21:01:41.837Z,8.10
2022-12-23T21:04:13.115Z,7.80
2022-12-23T21:06:40.911Z,7.80
2022-12-23T21:09:11.794Z,7.90
2022-12-23T21:11:45.190Z,8.00
2022-12-23T21:14:12.948Z,8.20
2022-12-23T21:16:40.947Z,8.30
2022-12-23T21:19:13.908Z,8.40
2022-12-23T21:21:41.206Z,8.40
2022-12-23T21:24:09.450Z,8.40
2022-12-23T21:26:36.858Z,8.40
2022-12-23T21:29:07.524Z,8.20
2022-12-23T21:31:38.215Z,8.00
2022-12-23T21:34:06.634Z,8.10
2022-12-23T21:36:37.261Z,8.00
2022-12-23T21:39:06.093Z,8.00
2022-12-23T21:41:39.152Z,8.10
2022-12-23T21:44:06.860Z,7.80
2022-12-23T21:46:35.648Z,7.60
2022-12-23T21:49:03.377Z,7.60
2022-12-23T21:51:40.268Z,7.80
2022-12-23T21:54:11.294Z,7.50
2022-12-23T21:56:41.110Z,7.50
2022-12-23T21:59:12.490Z,7.60
2022-12-23T22:01:41.778Z,8.00
2022-12-23T22:04:09.595Z,7.70
2022-12-23T22:06:40.448Z,7.50
2022-12-23T22:09:08.496Z,7.50
2022-12-23T22:11:37.298Z,7.50
2022-12-23T22:14:07.660Z,7.30
2022-12-23T22:16:37.317Z,7.50
2022-12-23T22:19:08.119Z,7.50
2022-12-23T22:21:36.546Z,7.60
2022-12-23T22:24:06.445Z,7.80
2022-12-23T22:26:34.230Z,7.90
2022-12-23T22:29:05.282Z,8.00
2022-12-23T22:31:49.934Z,8.00
2022-12-23T22:34:20.171Z,7.80
2022-12-23T22:36:48.236Z,7.50
2022-12-23T22:39:21.086Z,7.50
2022-12-23T22:41:51.103Z,7.60
2022-12-23T22:44:20.560Z,7.80
2022-12-23T22:46:48.418Z,7.90
2022-12-23T22:49:16.579Z,7.90
2022-12-23T22:51:44.857Z,7.90
2022-12-23T22:54:14.364Z,7.80
2022-12-23T22:56:41.861Z,7.70
2022-12-23T22:59:23.280Z,7.50
2022-12-23T23:01:52.785Z,7.40
2022-12-23T23:04:20.912Z,7.30
2022-12-23T23:06:49.374Z,6.90
2022-12-23T23:09:20.543Z,6.50
2022-12-23T23:11:50.861Z,6.70
2022-12-23T23:14:18.905Z,7.10
2022-12-23T23:16:47.642Z,7.30
2022-12-23T23:19:16.588Z,7.20
2022-12-23T23:21:45.212Z,6.50
2022-12-23T23:24:12.612Z,6.50
2022-12-23T23:26:41.351Z,6.30
2022-12-23T23:29:08.691Z,6.40
2022-12-23T23:31:44.396Z,6.60
2022-12-23T23:34:12.896Z,6.90
2022-12-23T23:36:40.887Z,7.10
2022-12-23T23:39:09.061Z,7.00
2022-12-23T23:41:37.218Z,6.60
2022-12-23T23:44:04.789Z,6.40
2022-12-23T23:46:35.146Z,6.50
2022-12-23T23:49:02.567Z,6.70
2022-12-23T23:51:30.918Z,6.80
2022-12-23T23:53:58.287Z,6.80
2022-12-23T23:56:29.865Z,6.60
2022-12-23T23:59:01.258Z,6.60
